createdAt,value
2018-06-30T00:00:15.417Z,24.90
2018-06-30T00:02:47.773Z,25.10
2018-06-30T00:05:20.126Z,24.80
2018-06-30T00:07:52.016Z,24.80
2018-06-30T00:10:31.956Z,24.70
2018-06-30T00:13:04.357Z,24.70
2018-06-30T00:15:36.849Z,24.70
2018-06-30T00:18:09.070Z,24.80
2018-06-30T00:20:41.368Z,25.00
2018-06-30T00:23:13.639Z,25.10
2018-06-30T00:25:45.928Z,25.00
2018-06-30T00:28:18.188Z,25.10
2018-06-30T00:30:50.326Z,25.00
2018-06-30T00:33:22.782Z,25.00
2018-06-30T00:35:55.873Z,25.00
2018-06-30T00:38:28.382Z,24.90
2018-06-30T00:41:00.874Z,24.60
2018-06-30T00:43:33.540Z,24.70
2018-06-30T00:46:05.981Z,24.70
2018-06-30T00:48:38.110Z,24.80
2018-06-30T00:51:10.568Z,25.00
2018-06-30T00:53:42.550Z,25.00
2018-06-30T00:56:14.640Z,24.90
2018-06-30T00:58:47.039Z,24.90
2018-06-30T01:01:19.521Z,24.80
2018-06-30T01:03:52.357Z,24.90
2018-06-30T01:06:24.882Z,24.90
2018-06-30T01:08:58.061Z,25.00
2018-06-30T01:11:30.444Z,25.00
2018-06-30T01:14:02.841Z,24.90
2018-06-30T01:16:35.218Z,24.90
2018-06-30T01:19:07.340Z,24.60
2018-06-30T01:21:39.713Z,24.50
2018-06-30T01:24:12.472Z,24.60
2018-06-30T01:26:44.834Z,24.60
2018-06-30T01:29:17.877Z,24.50
2018-06-30T01:31:50.634Z,24.30
2018-06-30T01:34:23.492Z,24.30
2018-06-30T01:36:56.602Z,24.40
2018-06-30T01:39:28.788Z,24.40
2018-06-30T01:42:01.110Z,24.30
2018-06-30T01:44:32.993Z,24.10
2018-06-30T01:47:05.590Z,24.20
2018-06-30T01:49:38.355Z,24.20
2018-06-30T01:52:10.727Z,24.20
2018-06-30T01:54:43.302Z,24.30
2018-06-30T01:57:16.294Z,24.20
2018-06-30T01:59:49.516Z,24.10
2018-06-30T02:02:22.121Z,24.10
2018-06-30T02:04:54.847Z,24.10
2018-06-30T02:07:27.395Z,24.00
2018-06-30T02:09:59.903Z,24.00
2018-06-30T02:15:03.943Z,24.00
2018-06-30T02:17:36.400Z,23.90
2018-06-30T02:20:08.740Z,23.70
2018-06-30T02:22:40.664Z,23.70
2018-06-30T02:25:13.280Z,23.70
2018-06-30T02:27:46.488Z,23.60
2018-06-30T02:30:19.350Z,23.70
2018-06-30T02:32:52.151Z,23.70
2018-06-30T02:35:24.559Z,23.70
2018-06-30T02:37:57.401Z,23.60
2018-06-30T02:40:30.195Z,23.60
2018-06-30T02:43:02.953Z,23.50
2018-06-30T02:45:35.891Z,23.40
2018-06-30T02:48:08.390Z,23.30
2018-06-30T02:50:40.812Z,23.20
2018-06-30T02:53:13.718Z,23.20
2018-06-30T02:55:45.949Z,23.20
2018-06-30T02:58:17.777Z,23.10
2018-06-30T03:00:50.517Z,23.00
2018-06-30T03:03:23.040Z,23.00
2018-06-30T03:05:55.639Z,22.90
2018-06-30T03:08:28.425Z,22.80
2018-06-30T03:11:00.799Z,22.70
2018-06-30T03:13:33.286Z,22.60
2018-06-30T03:16:05.708Z,22.50
2018-06-30T03:18:37.644Z,22.50
2018-06-30T03:21:10.231Z,22.40
2018-06-30T03:23:42.368Z,22.30
2018-06-30T03:26:14.851Z,22.30
2018-06-30T03:28:47.245Z,22.20
2018-06-30T03:31:20.198Z,22.20
2018-06-30T03:33:52.755Z,22.00
2018-06-30T03:36:25.582Z,21.90
2018-06-30T03:38:58.432Z,21.90
2018-06-30T03:41:32.126Z,21.80
2018-06-30T03:44:05.727Z,21.60
2018-06-30T03:46:38.614Z,21.60
2018-06-30T03:51:42.811Z,21.30
2018-06-30T03:54:15.554Z,21.30
2018-06-30T03:56:48.190Z,21.20
2018-06-30T03:59:20.791Z,21.10
2018-06-30T04:01:53.415Z,21.00
2018-06-30T04:04:26.096Z,20.90
2018-06-30T04:06:59.182Z,20.90
2018-06-30T04:09:32.808Z,20.80
2018-06-30T04:12:06.031Z,20.80
2018-06-30T04:14:38.928Z,20.70
2018-06-30T04:17:11.707Z,20.70
2018-06-30T04:19:44.833Z,20.60
2018-06-30T04:22:17.847Z,20.50
2018-06-30T04:24:50.621Z,20.50
2018-06-30T04:27:23.326Z,20.40
2018-06-30T04:29:56.520Z,20.30
2018-06-30T04:32:29.458Z,20.30
2018-06-30T04:35:02.530Z,20.20
2018-06-30T04:37:35.384Z,20.10
2018-06-30T04:40:08.029Z,20.00
2018-06-30T04:42:40.544Z,20.00
2018-06-30T04:45:13.112Z,20.00
2018-06-30T04:47:45.908Z,19.90
2018-06-30T04:50:18.558Z,19.90
2018-06-30T04:52:51.282Z,19.80
2018-06-30T04:55:23.897Z,19.80
2018-06-30T04:57:56.473Z,19.70
2018-06-30T05:00:29.126Z,19.60
2018-06-30T05:03:01.648Z,19.60
2018-06-30T05:05:34.415Z,19.50
2018-06-30T05:08:07.047Z,19.50
2018-06-30T05:10:39.759Z,19.50
2018-06-30T05:13:12.619Z,19.40
2018-06-30T05:15:45.097Z,19.40
2018-06-30T05:18:17.670Z,19.30
2018-06-30T05:20:50.469Z,19.20
2018-06-30T05:23:22.782Z,19.20
2018-06-30T05:25:55.261Z,19.10
2018-06-30T05:28:28.346Z,19.00
2018-06-30T05:31:00.982Z,19.00
2018-06-30T05:33:33.768Z,19.00
2018-06-30T05:36:07.203Z,18.90
2018-06-30T05:38:40.111Z,18.80
2018-06-30T05:41:12.775Z,18.80
2018-06-30T05:43:45.643Z,18.70
2018-06-30T05:46:18.284Z,18.70
2018-06-30T05:48:50.632Z,18.60
2018-06-30T05:51:23.183Z,18.60
2018-06-30T05:53:56.108Z,18.50
2018-06-30T05:56:29.082Z,18.50
2018-06-30T05:59:01.665Z,18.50
2018-06-30T06:01:34.564Z,18.40
2018-06-30T06:04:07.491Z,18.40
2018-06-30T06:06:39.847Z,18.30
2018-06-30T06:09:13.464Z,18.30
2018-06-30T06:11:45.829Z,18.20
2018-06-30T06:14:18.148Z,18.10
2018-06-30T06:16:50.576Z,18.10
2018-06-30T06:19:23.054Z,18.00
2018-06-30T06:21:55.465Z,17.90
2018-06-30T06:24:27.821Z,17.90
2018-06-30T06:27:00.145Z,17.90
2018-06-30T06:29:32.451Z,17.80
2018-06-30T06:32:05.111Z,17.80
2018-06-30T06:34:37.795Z,17.70
2018-06-30T06:37:10.293Z,17.70
2018-06-30T06:39:42.503Z,17.70
2018-06-30T06:42:15.129Z,17.60
2018-06-30T06:44:47.330Z,17.60
2018-06-30T06:47:20.472Z,17.50
2018-06-30T06:49:52.894Z,17.50
2018-06-30T06:52:26.581Z,17.40
2018-06-30T06:54:59.065Z,17.40
2018-06-30T06:57:31.488Z,17.30
2018-06-30T07:00:03.947Z,17.30
2018-06-30T07:02:36.623Z,17.30
2018-06-30T07:05:08.879Z,17.20
2018-06-30T07:10:12.863Z,17.10
2018-06-30T07:12:45.299Z,17.10
2018-06-30T07:15:17.816Z,17.00
2018-06-30T07:17:50.066Z,17.00
2018-06-30T07:20:22.650Z,17.00
2018-06-30T07:22:55.384Z,16.90
2018-06-30T07:25:27.820Z,16.80
2018-06-30T07:28:00.442Z,16.80
2018-06-30T07:30:32.795Z,16.80
2018-06-30T07:33:05.223Z,16.80
2018-06-30T07:35:37.727Z,16.70
2018-06-30T07:38:10.645Z,16.60
2018-06-30T07:43:14.017Z,16.60
2018-06-30T07:45:46.694Z,16.60
2018-06-30T07:48:18.950Z,16.50
2018-06-30T07:50:51.360Z,16.50
2018-06-30T07:53:23.540Z,16.50
2018-06-30T07:55:56.185Z,16.40
2018-06-30T07:58:28.551Z,16.40
2018-06-30T08:01:00.792Z,16.30
2018-06-30T08:03:33.304Z,16.30
2018-06-30T08:06:05.744Z,16.30
2018-06-30T08:08:38.058Z,16.20
2018-06-30T08:11:10.568Z,16.20
2018-06-30T08:13:43.190Z,16.20
2018-06-30T08:16:15.379Z,16.20
2018-06-30T08:18:47.919Z,16.10
2018-06-30T08:21:20.142Z,16.00
2018-06-30T08:23:52.678Z,16.00
2018-06-30T08:26:25.248Z,15.90
2018-06-30T08:28:58.083Z,15.90
2018-06-30T08:31:31.275Z,15.90
2018-06-30T08:34:03.950Z,15.90
2018-06-30T08:36:36.235Z,15.80
2018-06-30T08:39:13.124Z,15.80
2018-06-30T08:41:45.387Z,15.70
2018-06-30T08:44:17.698Z,15.60
2018-06-30T08:46:50.283Z,15.60
2018-06-30T08:49:22.844Z,15.60
2018-06-30T08:51:55.302Z,15.60
2018-06-30T08:54:27.798Z,15.60
2018-06-30T08:57:00.419Z,15.50
2018-06-30T08:59:32.954Z,15.40
2018-06-30T09:02:05.317Z,15.40
2018-06-30T09:04:37.937Z,15.30
2018-06-30T09:07:10.255Z,15.30
2018-06-30T09:09:42.657Z,15.30
2018-06-30T09:12:15.052Z,15.30
2018-06-30T09:14:47.637Z,15.20
2018-06-30T09:17:19.962Z,15.20
2018-06-30T09:19:52.557Z,15.20
2018-06-30T09:22:24.787Z,15.10
2018-06-30T09:24:57.346Z,15.00
2018-06-30T09:27:29.682Z,15.00
2018-06-30T09:30:01.966Z,14.90
2018-06-30T09:32:34.361Z,14.90
2018-06-30T09:35:06.777Z,14.90
2018-06-30T09:37:39.288Z,14.80
2018-06-30T09:40:11.839Z,14.80
2018-06-30T09:42:43.968Z,14.80
2018-06-30T09:45:16.061Z,14.80
2018-06-30T09:47:48.434Z,14.70
2018-06-30T09:50:20.966Z,14.70
2018-06-30T09:52:53.567Z,14.60
2018-06-30T09:55:25.866Z,14.60
2018-06-30T09:57:58.251Z,14.60
2018-06-30T10:00:35.081Z,14.50
2018-06-30T10:03:07.787Z,14.50
2018-06-30T10:05:40.474Z,14.50
2018-06-30T10:08:12.966Z,14.50
2018-06-30T10:10:45.172Z,14.50
2018-06-30T10:13:17.532Z,14.40
2018-06-30T10:15:50.081Z,14.40
2018-06-30T10:18:22.473Z,14.30
2018-06-30T10:20:54.827Z,14.30
2018-06-30T10:23:27.164Z,14.20
2018-06-30T10:25:59.517Z,14.20
2018-06-30T10:28:32.299Z,14.10
2018-06-30T10:31:04.652Z,14.00
2018-06-30T10:33:37.125Z,14.00
2018-06-30T10:36:09.914Z,13.90
2018-06-30T10:38:42.281Z,13.90
2018-06-30T10:41:14.870Z,13.90
2018-06-30T10:43:47.203Z,13.90
2018-06-30T10:46:19.801Z,13.80
2018-06-30T10:48:52.196Z,13.70
2018-06-30T10:51:24.205Z,13.70
2018-06-30T10:53:56.679Z,13.60
2018-06-30T10:56:29.194Z,13.60
2018-06-30T10:59:02.061Z,13.60
2018-06-30T11:01:34.406Z,13.60
2018-06-30T11:04:06.997Z,13.50
2018-06-30T11:06:39.404Z,13.60
2018-06-30T11:09:13.666Z,13.50
2018-06-30T11:11:46.092Z,13.50
2018-06-30T11:14:18.378Z,13.50
2018-06-30T11:16:50.938Z,13.40
2018-06-30T11:19:23.520Z,13.40
2018-06-30T11:21:55.983Z,13.50
2018-06-30T11:24:28.188Z,13.50
2018-06-30T11:27:00.573Z,13.60
2018-06-30T11:29:33.593Z,13.60
2018-06-30T11:32:05.965Z,13.70
2018-06-30T11:34:38.331Z,13.70
2018-06-30T11:37:10.897Z,13.80
2018-06-30T11:39:43.199Z,13.80
2018-06-30T11:42:16.377Z,13.80
2018-06-30T11:44:48.536Z,13.80
2018-06-30T11:47:20.992Z,13.80
2018-06-30T11:49:53.491Z,13.80
2018-06-30T11:52:25.851Z,13.90
2018-06-30T11:54:58.363Z,14.00
2018-06-30T12:00:02.324Z,14.00
2018-06-30T12:02:34.949Z,14.00
2018-06-30T12:05:08.153Z,14.10
2018-06-30T12:07:40.697Z,14.20
2018-06-30T12:10:13.107Z,14.20
2018-06-30T12:12:45.619Z,14.20
2018-06-30T12:15:17.929Z,14.20
2018-06-30T12:17:50.299Z,14.30
2018-06-30T12:20:22.473Z,14.30
2018-06-30T12:22:55.078Z,14.40
2018-06-30T12:27:58.844Z,14.50
2018-06-30T12:30:31.185Z,14.50
2018-06-30T12:33:03.311Z,14.50
2018-06-30T12:35:36.045Z,14.60
2018-06-30T12:38:08.406Z,14.60
2018-06-30T12:40:40.622Z,14.60
2018-06-30T12:43:14.240Z,14.70
2018-06-30T12:48:18.216Z,14.80
2018-06-30T12:50:50.577Z,14.90
2018-06-30T12:53:22.774Z,14.90
2018-06-30T12:55:55.769Z,15.00
2018-06-30T12:58:28.446Z,15.00
2018-06-30T13:01:01.005Z,15.10
2018-06-30T13:03:33.847Z,15.10
2018-06-30T13:06:05.990Z,15.20
2018-06-30T13:08:38.545Z,15.20
2018-06-30T13:11:11.119Z,15.30
2018-06-30T13:13:43.363Z,15.30
2018-06-30T13:16:15.949Z,15.40
2018-06-30T13:18:48.043Z,15.30
2018-06-30T13:21:20.428Z,15.40
2018-06-30T13:23:52.588Z,15.40
2018-06-30T13:26:24.945Z,15.40
2018-06-30T13:28:57.376Z,15.40
2018-06-30T13:31:29.974Z,15.50
2018-06-30T13:34:02.124Z,15.50
2018-06-30T13:36:34.645Z,15.50
2018-06-30T13:39:09.993Z,15.50
2018-06-30T13:41:42.679Z,15.50
2018-06-30T13:44:15.237Z,15.60
2018-06-30T13:46:47.468Z,15.60
2018-06-30T13:49:19.780Z,15.50
2018-06-30T13:51:52.121Z,15.50
2018-06-30T13:54:24.662Z,15.50
2018-06-30T13:56:57.001Z,15.50
2018-06-30T13:59:29.293Z,15.50
2018-06-30T14:02:01.634Z,15.50
2018-06-30T14:04:33.976Z,15.60
2018-06-30T14:07:06.499Z,15.60
2018-06-30T14:09:39.017Z,15.60
2018-06-30T14:12:11.618Z,15.70
2018-06-30T14:14:44.797Z,15.70
2018-06-30T14:17:17.372Z,15.70
2018-06-30T14:19:49.691Z,15.70
2018-06-30T14:22:22.066Z,15.70
2018-06-30T14:24:54.412Z,15.70
2018-06-30T14:27:26.826Z,15.80
2018-06-30T14:30:00.106Z,15.80
2018-06-30T14:32:32.713Z,15.90
2018-06-30T14:35:05.107Z,15.90
2018-06-30T14:37:37.841Z,15.90
2018-06-30T14:40:10.926Z,15.90
2018-06-30T14:42:43.089Z,16.00
2018-06-30T14:45:15.856Z,16.00
2018-06-30T14:47:48.446Z,16.00
2018-06-30T14:50:20.850Z,16.00
2018-06-30T14:52:53.165Z,16.10
2018-06-30T14:55:25.330Z,16.10
2018-06-30T14:57:57.903Z,16.20
2018-06-30T15:00:30.323Z,16.20
2018-06-30T15:03:02.822Z,16.30
2018-06-30T15:05:35.406Z,16.30
2018-06-30T15:08:07.661Z,16.40
2018-06-30T15:10:40.109Z,16.40
2018-06-30T15:13:12.473Z,16.40
2018-06-30T15:15:44.775Z,16.40
2018-06-30T15:18:17.306Z,16.50
2018-06-30T15:20:49.689Z,16.50
2018-06-30T15:23:22.011Z,16.60
2018-06-30T15:25:54.591Z,16.70
2018-06-30T15:28:27.091Z,16.80
2018-06-30T15:30:59.376Z,17.10
2018-06-30T15:33:31.710Z,17.10
2018-06-30T15:36:04.338Z,17.10
2018-06-30T15:38:36.865Z,17.10
2018-06-30T15:41:09.285Z,17.20
2018-06-30T15:43:41.509Z,17.20
2018-06-30T15:46:14.286Z,17.20
2018-06-30T15:48:46.664Z,17.30
2018-06-30T15:51:18.912Z,17.20
2018-06-30T15:53:51.108Z,17.30
2018-06-30T15:56:23.880Z,17.40
2018-06-30T15:58:57.084Z,17.40
2018-06-30T16:01:29.377Z,17.50
2018-06-30T16:04:01.681Z,17.70
2018-06-30T16:06:34.326Z,17.70
2018-06-30T16:09:08.960Z,17.70
2018-06-30T16:11:41.342Z,17.80
2018-06-30T16:14:13.697Z,18.00
2018-06-30T16:16:46.348Z,18.20
2018-06-30T16:19:18.692Z,18.30
2018-06-30T16:21:51.482Z,18.40
2018-06-30T16:24:23.739Z,18.40
2018-06-30T16:26:56.327Z,18.40
2018-06-30T16:29:28.546Z,18.50
2018-06-30T16:32:00.911Z,18.30
2018-06-30T16:34:33.288Z,18.40
2018-06-30T16:37:05.595Z,18.50
2018-06-30T16:39:37.950Z,18.50
2018-06-30T16:42:10.151Z,18.50
2018-06-30T16:44:42.726Z,18.50
2018-06-30T16:47:15.929Z,18.60
2018-06-30T16:49:48.282Z,18.70
2018-06-30T16:52:20.714Z,18.80
2018-06-30T16:54:53.231Z,18.90
2018-06-30T16:57:25.523Z,19.00
2018-06-30T16:59:58.113Z,19.20
2018-06-30T17:02:30.658Z,19.60
2018-06-30T17:05:03.876Z,19.40
2018-06-30T17:07:36.226Z,19.30
2018-06-30T17:10:08.993Z,19.30
2018-06-30T17:12:41.587Z,19.60
2018-06-30T17:15:14.140Z,19.80
2018-06-30T17:17:46.545Z,20.50
2018-06-30T17:20:19.033Z,20.70
2018-06-30T17:22:52.018Z,21.50
2018-06-30T17:25:24.326Z,21.70
2018-06-30T17:27:56.901Z,21.70
2018-06-30T17:30:30.013Z,22.10
2018-06-30T17:33:02.539Z,22.10
2018-06-30T17:35:35.296Z,21.80
2018-06-30T17:38:07.921Z,21.80
2018-06-30T17:40:40.327Z,22.10
2018-06-30T17:43:12.581Z,22.20
2018-06-30T17:45:45.118Z,22.30
2018-06-30T17:48:18.664Z,21.80
2018-06-30T17:50:51.100Z,21.90
2018-06-30T17:53:23.698Z,21.90
2018-06-30T17:55:56.442Z,21.90
2018-06-30T17:58:28.815Z,21.80
2018-06-30T18:01:01.128Z,21.40
2018-06-30T18:03:33.583Z,21.40
2018-06-30T18:06:05.712Z,21.90
2018-06-30T18:08:38.329Z,22.10
2018-06-30T18:11:10.653Z,22.20
2018-06-30T18:13:43.007Z,22.30
2018-06-30T18:18:47.615Z,21.90
2018-06-30T18:21:20.002Z,21.70
2018-06-30T18:23:52.390Z,22.10
2018-06-30T18:26:24.633Z,22.40
2018-06-30T18:28:57.206Z,22.60
2018-06-30T18:31:29.633Z,22.90
2018-06-30T18:34:02.753Z,23.30
2018-06-30T18:36:35.238Z,23.40
2018-06-30T18:39:10.445Z,23.40
2018-06-30T18:41:42.961Z,23.10
2018-06-30T18:44:15.381Z,22.70
2018-06-30T18:46:47.729Z,22.70
2018-06-30T18:49:20.305Z,22.50
2018-06-30T18:51:52.963Z,22.60
2018-06-30T18:54:25.501Z,23.10
2018-06-30T18:56:57.756Z,23.10
2018-06-30T18:59:31.015Z,23.50
2018-06-30T19:02:03.541Z,24.40
2018-06-30T19:04:36.001Z,25.80
2018-06-30T19:07:08.531Z,26.20
2018-06-30T19:09:40.909Z,26.30
2018-06-30T19:12:13.488Z,25.80
2018-06-30T19:14:46.151Z,27.00
2018-06-30T19:17:18.834Z,28.10
2018-06-30T19:19:51.407Z,28.60
2018-06-30T19:22:24.038Z,28.60
2018-06-30T19:24:56.341Z,29.10
2018-06-30T19:27:28.823Z,28.10
2018-06-30T19:30:01.263Z,27.30
2018-06-30T19:32:33.363Z,27.00
2018-06-30T19:35:05.959Z,26.90
2018-06-30T19:37:38.191Z,26.60
2018-06-30T19:40:10.858Z,27.00
2018-06-30T19:42:43.430Z,27.60
2018-06-30T19:45:15.846Z,28.30
2018-06-30T19:47:48.171Z,29.40
2018-06-30T19:50:20.837Z,29.30
2018-06-30T19:52:53.386Z,28.60
2018-06-30T19:55:25.543Z,27.30
2018-06-30T19:57:57.953Z,27.30
2018-06-30T20:00:30.452Z,27.60
2018-06-30T20:03:02.850Z,27.30
2018-06-30T20:05:35.555Z,26.60
2018-06-30T20:08:07.805Z,25.40
2018-06-30T20:10:40.417Z,25.10
2018-06-30T20:13:12.705Z,24.90
2018-06-30T20:15:44.936Z,24.60
2018-06-30T20:18:17.282Z,24.50
2018-06-30T20:20:49.557Z,24.70
2018-06-30T20:25:53.184Z,24.60
2018-06-30T20:28:25.548Z,24.50
2018-06-30T20:30:59.788Z,24.30
2018-06-30T20:33:32.209Z,24.10
2018-06-30T20:36:04.597Z,24.00
2018-06-30T20:38:37.357Z,24.00
2018-06-30T20:41:09.705Z,23.90
2018-06-30T20:43:42.018Z,23.60
2018-06-30T20:46:16.592Z,23.80
2018-06-30T20:48:49.244Z,23.90
2018-06-30T20:51:22.006Z,23.60
2018-06-30T20:53:54.212Z,23.30
2018-06-30T20:56:26.986Z,23.30
2018-06-30T20:58:59.476Z,23.60
2018-06-30T21:01:32.828Z,23.60
2018-06-30T21:04:05.076Z,23.50
2018-06-30T21:06:37.573Z,23.30
2018-06-30T21:09:12.485Z,23.30
2018-06-30T21:11:44.780Z,23.60
2018-06-30T21:14:16.693Z,23.90
2018-06-30T21:16:48.618Z,23.90
2018-06-30T21:19:21.233Z,23.90
2018-06-30T21:21:53.766Z,23.70
2018-06-30T21:24:26.260Z,23.80
2018-06-30T21:26:58.668Z,23.90
2018-06-30T21:29:31.181Z,23.90
2018-06-30T21:32:03.587Z,23.70
2018-06-30T21:34:35.939Z,23.80
2018-06-30T21:37:07.930Z,24.00
2018-06-30T21:39:39.791Z,23.90
2018-06-30T21:42:11.678Z,23.90
2018-06-30T21:44:44.249Z,24.00
2018-06-30T21:47:16.683Z,23.90
2018-06-30T21:49:49.009Z,23.80
2018-06-30T21:52:21.758Z,24.10
2018-06-30T21:54:54.285Z,24.20
2018-06-30T21:57:26.627Z,24.30
2018-06-30T21:59:59.438Z,24.50
2018-06-30T22:02:31.597Z,24.50
2018-06-30T22:05:03.481Z,24.00
2018-06-30T22:07:36.830Z,24.30
2018-06-30T22:10:09.934Z,24.60
2018-06-30T22:12:42.414Z,24.80
2018-06-30T22:15:14.592Z,25.00
2018-06-30T22:17:46.998Z,24.70
2018-06-30T22:20:19.158Z,24.80
2018-06-30T22:22:51.049Z,24.70
2018-06-30T22:25:22.985Z,24.80
2018-06-30T22:27:54.937Z,25.10
2018-06-30T22:30:26.772Z,25.10
2018-06-30T22:32:59.108Z,25.40
2018-06-30T22:35:32.071Z,25.30
2018-06-30T22:38:04.691Z,25.30
2018-06-30T22:40:37.231Z,25.50
2018-06-30T22:43:09.806Z,25.60
2018-06-30T22:45:41.999Z,25.70
2018-06-30T22:48:13.931Z,25.70
2018-06-30T22:50:45.788Z,25.90
2018-06-30T22:53:17.874Z,26.00
2018-06-30T22:55:49.766Z,25.80
2018-06-30T22:58:21.746Z,25.80
2018-06-30T23:00:54.380Z,26.10
2018-06-30T23:03:26.448Z,26.20
2018-06-30T23:05:58.882Z,26.00
2018-06-30T23:08:31.104Z,26.20
2018-06-30T23:11:03.290Z,26.00
2018-06-30T23:13:35.820Z,26.00
2018-06-30T23:16:07.687Z,26.20
2018-06-30T23:18:39.585Z,26.30
2018-06-30T23:21:11.424Z,26.20
2018-06-30T23:23:43.891Z,26.10
2018-06-30T23:26:16.249Z,25.70
2018-06-30T23:28:48.671Z,25.60
2018-06-30T23:31:21.554Z,25.50
2018-06-30T23:33:54.010Z,25.40
2018-06-30T23:36:26.973Z,25.50
2018-06-30T23:38:59.244Z,25.70
2018-06-30T23:41:31.096Z,25.80
2018-06-30T23:44:02.990Z,26.00
2018-06-30T23:46:35.226Z,26.10
2018-06-30T23:49:08.010Z,26.00
2018-06-30T23:54:12.509Z,26.20
2018-06-30T23:56:45.022Z,26.40
2018-06-30T23:59:17.623Z,26.10
